createdAt,value
2023-01-08T00:04:18.177Z,52.47
2023-01-08T00:09:20.208Z,52.46
2023-01-08T00:14:22.172Z,52.66
2023-01-08T00:19:24.175Z,52.24
2023-01-08T00:24:26.432Z,52.36
2023-01-08T00:29:28.347Z,52.36
2023-01-08T00:34:30.892Z,52.47
2023-01-08T00:39:33.193Z,52.60
2023-01-08T00:44:35.252Z,52.50
2023-01-08T00:49:37.621Z,52.95
2023-01-08T00:54:39.971Z,52.87
2023-01-08T00:59:42.240Z,53.41
2023-01-08T01:04:44.601Z,53.13
2023-01-08T01:09:47.240Z,52.93
2023-01-08T01:14:49.337Z,53.20
2023-01-08T01:19:51.723Z,53.26
2023-01-08T01:24:53.736Z,53.00
2023-01-08T01:29:55.923Z,53.15
2023-01-08T01:34:57.937Z,53.17
2023-01-08T01:39:59.950Z,52.48
2023-01-08T01:45:18.000Z,52.72
2023-01-08T01:50:29.892Z,52.67
2023-01-08T01:55:35.891Z,52.49
2023-01-08T02:00:38.423Z,52.12
2023-01-08T02:06:11.672Z,52.57
2023-01-08T02:11:34.767Z,52.55
2023-01-08T02:16:48.139Z,52.45
2023-01-08T02:22:08.861Z,52.77
2023-01-08T02:27:13.307Z,52.93
2023-01-08T02:32:15.417Z,52.93
2023-01-08T02:37:17.296Z,53.20
2023-01-08T02:42:56.890Z,53.32
2023-01-08T02:48:10.587Z,53.71
2023-01-08T02:53:23.554Z,53.89
2023-01-08T02:58:28.276Z,54.09
2023-01-08T03:03:33.538Z,53.92
2023-01-08T03:08:42.524Z,54.13
2023-01-08T03:13:53.629Z,53.85
2023-01-08T03:19:01.364Z,54.31
2023-01-08T03:24:05.516Z,54.14
2023-01-08T03:29:13.862Z,54.39
2023-01-08T03:34:16.896Z,54.20
2023-01-08T03:39:24.080Z,54.15
2023-01-08T03:44:26.180Z,54.31
2023-01-08T03:49:30.062Z,53.77
2023-01-08T03:54:35.052Z,53.86
2023-01-08T03:59:36.721Z,53.79
2023-01-08T04:04:38.893Z,53.96
2023-01-08T04:09:40.807Z,53.65
2023-01-08T04:14:42.667Z,53.90
2023-01-08T04:19:45.270Z,53.90
2023-01-08T04:24:47.076Z,53.82
2023-01-08T04:29:48.966Z,53.63
2023-01-08T04:34:50.899Z,53.31
2023-01-08T04:39:53.209Z,53.16
2023-01-08T04:44:55.305Z,53.35
2023-01-08T04:49:57.337Z,53.36
2023-01-08T04:54:59.079Z,53.13
2023-01-08T05:00:00.735Z,53.39
2023-01-08T05:05:02.848Z,53.25
2023-01-08T05:10:05.232Z,53.55
2023-01-08T05:15:07.677Z,53.40
2023-01-08T05:20:09.779Z,53.42
2023-01-08T05:25:11.628Z,53.38
2023-01-08T05:30:13.754Z,53.55
2023-01-08T05:35:15.498Z,53.25
2023-01-08T05:40:17.423Z,53.18
2023-01-08T05:45:19.157Z,53.12
2023-01-08T05:50:21.064Z,53.17
2023-01-08T05:55:23.208Z,53.13
2023-01-08T06:00:26.448Z,53.38
2023-01-08T06:05:28.761Z,52.83
2023-01-08T06:10:30.554Z,53.21
2023-01-08T06:15:32.387Z,52.95
2023-01-08T06:20:34.157Z,52.57
2023-01-08T06:25:37.065Z,53.23
2023-01-08T06:30:38.776Z,52.71
2023-01-08T06:35:40.491Z,53.13
2023-01-08T06:40:42.174Z,52.67
2023-01-08T06:45:43.993Z,52.95
2023-01-08T06:50:45.822Z,52.61
2023-01-08T06:55:47.716Z,53.03
2023-01-08T07:00:50.116Z,53.24
2023-01-08T07:05:51.827Z,53.17
2023-01-08T07:10:54.037Z,52.89
2023-01-08T07:15:56.316Z,53.29
2023-01-08T07:20:58.169Z,53.14
2023-01-08T07:26:01.613Z,53.10
2023-01-08T07:31:05.867Z,53.29
2023-01-08T07:36:08.803Z,53.38
2023-01-08T07:41:13.488Z,52.88
2023-01-08T07:46:17.342Z,53.24
2023-01-08T07:51:21.092Z,53.15
2023-01-08T07:56:24.175Z,53.42
2023-01-08T08:01:29.029Z,52.91
2023-01-08T08:06:31.806Z,53.08
2023-01-08T08:11:33.499Z,53.16
2023-01-08T08:16:35.312Z,53.03
2023-01-08T08:21:37.243Z,53.21
2023-01-08T08:26:39.523Z,53.15
2023-01-08T08:31:41.800Z,53.04
2023-01-08T08:36:44.412Z,52.69
2023-01-08T08:41:46.295Z,52.82
2023-01-08T08:46:48.114Z,53.43
2023-01-08T08:51:50.009Z,53.32
2023-01-08T08:56:52.079Z,52.91
2023-01-08T09:01:54.927Z,53.53
2023-01-08T09:06:56.916Z,53.32
2023-01-08T09:11:58.852Z,53.29
2023-01-08T09:17:00.536Z,53.33
2023-01-08T09:22:03.104Z,53.73
2023-01-08T09:27:05.403Z,53.27
2023-01-08T09:32:08.100Z,53.80
2023-01-08T09:37:09.858Z,53.73
2023-01-08T09:42:13.737Z,53.74
2023-01-08T09:47:38.088Z,53.72
2023-01-08T09:52:42.725Z,53.89
2023-01-08T09:57:46.580Z,53.63
2023-01-08T10:02:49.018Z,54.19
2023-01-08T10:07:50.814Z,54.26
2023-01-08T10:12:53.611Z,54.16
2023-01-08T10:18:05.926Z,53.96
2023-01-08T10:23:16.065Z,53.94
2023-01-08T10:28:35.997Z,54.01
2023-01-08T10:33:42.234Z,53.84
2023-01-08T10:38:55.312Z,53.92
2023-01-08T10:44:14.913Z,53.82
2023-01-08T10:49:39.902Z,54.12
2023-01-08T10:54:41.552Z,54.04
2023-01-08T10:59:44.907Z,54.14
2023-01-08T11:04:52.810Z,54.00
2023-01-08T11:09:55.963Z,54.01
2023-01-08T11:14:57.873Z,54.25
2023-01-08T11:20:29.171Z,54.24
2023-01-08T11:25:32.060Z,54.08
2023-01-08T11:30:36.610Z,54.22
2023-01-08T11:35:42.872Z,53.85
2023-01-08T11:40:53.209Z,54.12
2023-01-08T11:46:27.178Z,54.04
2023-01-08T11:51:35.403Z,54.27
2023-01-08T11:56:56.008Z,53.98
2023-01-08T12:02:19.739Z,54.07
2023-01-08T12:07:45.695Z,54.31
2023-01-08T12:12:56.612Z,54.43
2023-01-08T12:18:13.754Z,54.51
2023-01-08T12:23:34.056Z,54.70
2023-01-08T12:29:06.984Z,54.78
2023-01-08T12:34:20.373Z,54.59
2023-01-08T12:39:36.111Z,54.66
2023-01-08T12:44:39.046Z,54.76
2023-01-08T12:49:49.665Z,54.77
2023-01-08T12:55:21.934Z,54.75
2023-01-08T13:00:45.851Z,54.65
2023-01-08T13:05:48.053Z,54.90
2023-01-08T13:10:53.975Z,54.76
2023-01-08T13:16:20.426Z,54.89
2023-01-08T13:21:33.582Z,54.82
2023-01-08T13:26:36.950Z,54.79
2023-01-08T13:31:42.149Z,54.69
2023-01-08T13:36:55.780Z,54.81
2023-01-08T13:42:23.568Z,54.92
2023-01-08T13:47:35.876Z,54.64
2023-01-08T13:52:46.344Z,54.56
2023-01-08T13:57:55.356Z,54.53
2023-01-08T14:02:57.265Z,54.43
2023-01-08T14:08:01.852Z,54.71
2023-01-08T14:13:09.185Z,54.80
2023-01-08T14:18:13.772Z,54.65
2023-01-08T14:23:27.463Z,54.67
2023-01-08T14:28:29.193Z,54.64
2023-01-08T14:33:35.845Z,54.67
2023-01-08T14:38:39.155Z,54.73
2023-01-08T14:43:47.551Z,54.93
2023-01-08T14:48:51.061Z,55.01
2023-01-08T14:53:57.117Z,55.22
2023-01-08T14:59:00.254Z,55.08
2023-01-08T15:04:07.759Z,55.19
2023-01-08T15:09:36.147Z,55.01
2023-01-08T15:14:37.882Z,55.29
2023-01-08T15:19:46.649Z,55.39
2023-01-08T15:24:58.428Z,54.97
2023-01-08T15:30:01.061Z,55.03
2023-01-08T15:35:15.058Z,55.21
2023-01-08T15:40:17.388Z,55.29
2023-01-08T15:45:22.364Z,55.32
2023-01-08T15:50:26.526Z,55.32
2023-01-08T15:55:28.574Z,55.45
2023-01-08T16:00:30.708Z,55.56
2023-01-08T16:05:33.240Z,55.38
2023-01-08T16:10:35.335Z,55.77
2023-01-08T16:15:39.210Z,55.38
2023-01-08T16:20:40.986Z,55.42
2023-01-08T16:25:42.859Z,55.67
2023-01-08T16:30:44.964Z,55.85
2023-01-08T16:36:03.398Z,55.79
2023-01-08T16:41:05.800Z,55.60
2023-01-08T16:46:16.701Z,55.72
2023-01-08T16:51:18.761Z,55.98
2023-01-08T16:56:22.705Z,56.04
2023-01-08T17:01:24.523Z,55.84
2023-01-08T17:06:26.193Z,56.22
2023-01-08T17:11:28.197Z,56.29
2023-01-08T17:16:30.734Z,56.03
2023-01-08T17:21:33.771Z,56.24
2023-01-08T17:26:36.510Z,56.27
2023-01-08T17:31:45.649Z,55.95
2023-01-08T17:36:49.459Z,56.11
2023-01-08T17:42:18.417Z,56.51
2023-01-08T17:47:21.696Z,56.39
2023-01-08T17:52:26.073Z,56.52
2023-01-08T17:57:37.317Z,56.05
2023-01-08T18:02:51.038Z,56.50
2023-01-08T18:07:58.717Z,56.45
2023-01-08T18:13:07.402Z,56.23
2023-01-08T18:18:09.240Z,56.17
2023-01-08T18:23:11.657Z,56.25
2023-01-08T18:28:13.788Z,56.17
2023-01-08T18:33:16.564Z,56.41
2023-01-08T18:38:20.148Z,56.40
2023-01-08T18:43:27.669Z,56.31
2023-01-08T18:48:37.524Z,56.23
2023-01-08T18:53:41.901Z,56.34
2023-01-08T18:58:44.111Z,56.30
2023-01-08T19:03:58.517Z,56.29
2023-01-08T19:09:17.081Z,56.73
2023-01-08T19:14:22.083Z,56.20
2023-01-08T19:19:24.569Z,56.58
2023-01-08T19:24:26.811Z,56.43
2023-01-08T19:29:29.171Z,56.42
2023-01-08T19:34:31.207Z,56.54
2023-01-08T19:39:33.584Z,56.38
2023-01-08T19:44:35.867Z,56.30
2023-01-08T19:49:39.087Z,56.28
2023-01-08T19:54:41.022Z,56.12
2023-01-08T19:59:43.548Z,56.21
2023-01-08T20:04:45.567Z,56.11
2023-01-08T20:09:47.618Z,55.85
2023-01-08T20:14:52.572Z,56.04
2023-01-08T20:19:54.442Z,56.05
2023-01-08T20:24:58.657Z,55.85
2023-01-08T20:30:01.884Z,56.05
2023-01-08T20:35:04.890Z,55.98
2023-01-08T20:40:07.380Z,55.75
2023-01-08T20:45:10.921Z,55.85
2023-01-08T20:50:20.018Z,55.74
2023-01-08T20:55:22.503Z,55.83
2023-01-08T21:00:25.990Z,55.71
2023-01-08T21:05:28.162Z,55.52
2023-01-08T21:10:30.207Z,55.84
2023-01-08T21:15:32.180Z,55.91
2023-01-08T21:20:34.550Z,55.82
2023-01-08T21:25:36.444Z,55.88
2023-01-08T21:30:39.038Z,55.86
2023-01-08T21:35:40.776Z,55.98
2023-01-08T21:40:42.527Z,56.01
2023-01-08T21:45:44.951Z,55.73
2023-01-08T21:50:47.065Z,55.65
2023-01-08T21:55:49.018Z,55.88
2023-01-08T22:00:50.986Z,55.90
2023-01-08T22:06:01.716Z,55.81
2023-01-08T22:11:07.999Z,55.97
2023-01-08T22:16:14.229Z,56.23
2023-01-08T22:21:16.433Z,56.14
2023-01-08T22:26:20.296Z,56.12
2023-01-08T22:31:22.096Z,56.05
2023-01-08T22:36:25.489Z,55.76
2023-01-08T22:41:27.237Z,55.82
2023-01-08T22:46:29.037Z,55.98
2023-01-08T22:51:30.931Z,55.54
2023-01-08T22:56:33.295Z,55.76
2023-01-08T23:01:35.348Z,55.67
2023-01-08T23:06:39.447Z,55.61
2023-01-08T23:11:41.606Z,55.88
2023-01-08T23:16:43.932Z,55.49
2023-01-08T23:21:45.862Z,55.79
2023-01-08T23:26:47.634Z,56.02
2023-01-08T23:31:49.980Z,55.76
2023-01-08T23:36:52.119Z,55.75
2023-01-08T23:41:53.912Z,55.89
2023-01-08T23:46:55.763Z,55.82
2023-01-08T23:51:57.497Z,55.54
2023-01-08T23:56:59.598Z,56.13
